Time,TemperatureF,DewpointF,PressureIn,WindDirection,WindDirectionDegrees,WindSpeedMPH,WindSpeedGustMPH,Humidity,HourlyPrecipIn,Conditions,Clouds,dailyrainin,SoftwareType,DateUTC
2013-06-14 00:00:00,61.6,58.6,29.90,SSW,202,1.0,4.0,90,0.00,,---,0.00,VWS V14.00,2013-06-14 07:00:00,
2013-06-14 00:01:00,61.6,59.0,29.90,SSE,147,2.0,3.0,90,0.00,,,0.00,weatherlink.com 1.10,2013-06-14 07:01:00,
2013-06-14 00:16:00,61.4,59.0,29.90,ESE,107,3.0,8.0,90,0.00,,,0.00,weatherlink.com 1.10,2013-06-14 07:16:00,
2013-06-14 00:30:00,61.2,58.6,29.90,SE,135,1.0,8.0,91,0.00,,---,0.00,VWS V14.00,2013-06-14 07:30:00,
2013-06-14 00:31:00,61.2,59.0,29.90,SE,125,0.0,4.0,91,0.00,,,0.00,weatherlink.com 1.10,2013-06-14 07:31:00,
2013-06-14 00:46:00,61.3,59.0,29.90,SE,134,2.0,6.0,91,0.00,,,0.00,weatherlink.com 1.10,2013-06-14 07:46:00,
2013-06-14 01:00:00,61.3,58.7,29.89,SE,135,1.0,6.0,91,0.00,,---,0.00,VWS V14.00,2013-06-14 08:00:00,
2013-06-14 01:01:00,61.3,59.0,29.89,SE,144,5.0,5.0,91,0.00,,,0.00,weatherlink.com 1.10,2013-06-14 08:01:00,
2013-06-14 01:16:00,61.1,58.0,29.89,SSE,157,2.0,7.0,90,0.00,,,0.00,weatherlink.com 1.10,2013-06-14 08:16:00,
2013-06-14 01:30:00,61.3,58.3,29.89,SE,135,1.0,7.0,90,0.00,,---,0.00,VWS V14.00,2013-06-14 08:30:00,
2013-06-14 01:31:00,61.3,58.0,29.89,SE,140,2.0,2.0,90,0.00,,,0.00,weatherlink.com 1.10,2013-06-14 08:31:00,
2013-06-14 01:46:00,61.3,58.0,29.89,SE,134,2.0,4.0,89,0.00,,,0.00,weatherlink.com 1.10,2013-06-14 08:46:00,
2013-06-14 02:00:00,61.4,57.8,29.88,SE,135,2.0,6.0,88,0.00,,---,0.00,VWS V14.00,2013-06-14 09:00:00,
2013-06-14 02:01:00,61.5,58.0,29.88,ESE,105,2.0,6.0,89,0.00,,,0.00,weatherlink.com 1.10,2013-06-14 09:01:00,
2013-06-14 02:16:00,61.6,58.0,29.88,SE,140,4.0,7.0,89,0.00,,,0.00,weatherlink.com 1.10,2013-06-14 09:16:00,
2013-06-14 02:30:00,61.3,58.3,29.89,SE,135,1.0,7.0,90,0.00,,---,0.00,VWS V14.00,2013-06-14 09:30:00,
2013-06-14 02:31:00,61.6,58.0,29.88,SE,141,2.0,8.0,89,0.00,,,0.00,weatherlink.com 1.10,2013-06-14 09:31:00,
2013-06-14 02:46:00,61.4,58.0,29.88,SE,128,1.0,7.0,89,0.00,,,0.00,weatherlink.com 1.10,2013-06-14 09:46:00,
2013-06-14 03:00:00,61.3,58.3,29.88,SE,135,3.0,8.0,90,0.00,,---,0.00,VWS V14.00,2013-06-14 10:00:00,
2013-06-14 03:01:00,61.3,58.0,29.88,SE,137,1.0,7.0,90,0.00,,,0.00,weatherlink.com 1.10,2013-06-14 10:01:00,
2013-06-14 03:16:00,61.1,58.0,29.88,ESE,109,2.0,8.0,90,0.00,,,0.00,weatherlink.com 1.10,2013-06-14 10:16:00,
2013-06-14 03:30:00,61.2,57.9,29.88,ESE,112,3.0,8.0,89,0.00,,---,0.00,VWS V14.00,2013-06-14 10:30:00,
2013-06-14 03:31:00,61.2,58.0,29.88,SSE,155,0.0,7.0,89,0.00,,,0.00,weatherlink.com 1.10,2013-06-14 10:31:00,
2013-06-14 03:46:00,61.4,58.0,29.88,SSE,162,3.0,8.0,89,0.00,,,0.00,weatherlink.com 1.10,2013-06-14 10:46:00,
2013-06-14 04:00:00,61.4,58.1,29.88,SE,135,3.0,9.0,89,0.00,,---,0.00,VWS V14.00,2013-06-14 11:00:00,
2013-06-14 04:01:00,61.4,58.0,29.88,SE,144,6.0,9.0,89,0.00,,,0.00,weatherlink.com 1.10,2013-06-14 11:01:00,
2013-06-14 04:16:00,61.2,58.0,29.87,SE,146,7.0,8.0,88,0.00,,,0.00,weatherlink.com 1.10,2013-06-14 11:16:00,
2013-06-14 04:30:00,61.3,57.7,29.87,SE,135,4.0,9.0,88,0.00,,---,0.00,VWS V14.00,2013-06-14 11:30:00,
2013-06-14 04:31:00,61.3,58.0,29.87,SE,140,7.0,7.0,88,0.00,,,0.00,weatherlink.com 1.10,2013-06-14 11:31:00,
2013-06-14 04:46:00,61.3,58.0,29.88,South,174,3.0,6.0,88,0.00,,,0.00,weatherlink.com 1.10,2013-06-14 11:46:00,
2013-06-14 05:00:00,61.3,57.7,29.88,SE,135,3.0,7.0,88,0.00,,---,0.00,VWS V14.00,2013-06-14 12:00:00,
2013-06-14 05:01:00,61.3,58.0,29.88,SSE,164,0.0,5.0,88,0.00,,,0.00,weatherlink.com 1.10,2013-06-14 12:01:00,
2013-06-14 05:16:00,61.4,58.0,29.89,SE,143,4.0,7.0,89,0.00,,,0.00,weatherlink.com 1.10,2013-06-14 12:16:00,
2013-06-14 05:30:00,61.3,57.7,29.89,SE,135,3.0,8.0,88,0.00,,---,0.00,VWS V14.00,2013-06-14 12:30:00,
2013-06-14 05:31:00,61.3,58.0,29.89,SSE,157,2.0,7.0,88,0.00,,,0.00,weatherlink.com 1.10,2013-06-14 12:31:00,
2013-06-14 05:46:00,61.1,58.0,29.89,SSE,167,1.0,6.0,88,0.00,,,0.00,weatherlink.com 1.10,2013-06-14 12:46:00,
2013-06-14 06:00:00,61.1,57.5,29.89,SSE,158,2.0,6.0,88,0.00,,---,0.00,VWS V14.00,2013-06-14 13:00:00,
2013-06-14 06:01:00,61.1,58.0,29.89,East,88,5.0,6.0,88,0.00,,,0.00,weatherlink.com 1.10,2013-06-14 13:01:00,
2013-06-14 06:16:00,61.1,58.0,29.89,SE,141,2.0,9.0,88,0.00,,,0.00,weatherlink.com 1.10,2013-06-14 13:16:00,
2013-06-14 06:30:00,61.1,57.5,29.89,SE,135,2.0,9.0,88,0.00,,---,0.00,VWS V14.00,2013-06-14 13:30:00,
2013-06-14 06:31:00,61.1,58.0,29.89,SE,144,6.0,9.0,88,0.00,,,0.00,weatherlink.com 1.10,2013-06-14 13:31:00,
2013-06-14 06:46:00,61.1,58.0,29.89,SSE,159,4.0,6.0,88,0.00,,,0.00,weatherlink.com 1.10,2013-06-14 13:46:00,
2013-06-14 07:00:00,61.1,57.5,29.90,SSE,158,3.0,9.0,88,0.00,,---,0.00,VWS V14.00,2013-06-14 14:00:00,
2013-06-14 07:01:00,61.1,58.0,29.89,SE,143,0.0,9.0,88,0.00,,,0.00,weatherlink.com 1.10,2013-06-14 14:01:00,
2013-06-14 07:16:00,61.2,58.0,29.90,ESE,119,2.0,7.0,88,0.00,,,0.00,weatherlink.com 1.10,2013-06-14 14:16:00,
2013-06-14 07:30:00,61.1,57.5,29.89,SE,135,2.0,9.0,88,0.00,,---,0.00,VWS V14.00,2013-06-14 14:30:00,
2013-06-14 07:32:00,61.1,57.0,29.90,SE,142,5.0,9.0,87,0.00,,,0.00,weatherlink.com 1.10,2013-06-14 14:32:00,
2013-06-14 07:47:00,61.3,57.0,29.90,SSE,148,3.0,7.0,87,0.00,,,0.00,weatherlink.com 1.10,2013-06-14 14:47:00,
2013-06-14 08:00:00,61.1,57.2,29.90,SSE,158,4.0,13.0,87,0.00,,---,0.00,VWS V14.00,2013-06-14 15:00:00,
2013-06-14 08:02:00,61.1,57.0,29.90,SSE,161,3.0,13.0,87,0.00,,,0.00,weatherlink.com 1.10,2013-06-14 15:02:00,
2013-06-14 08:17:00,61.4,58.0,29.90,SSE,156,3.0,11.0,87,0.00,,,0.00,weatherlink.com 1.10,2013-06-14 15:17:00,
2013-06-14 08:30:00,61.6,57.4,29.91,SSE,158,4.0,11.0,86,0.00,,---,0.00,VWS V14.00,2013-06-14 15:30:00,
2013-06-14 08:32:00,61.6,57.0,29.91,South,175,3.0,8.0,86,0.00,,,0.00,weatherlink.com 1.10,2013-06-14 15:32:00,
2013-06-14 08:47:00,62.0,58.0,29.91,SSE,150,5.0,8.0,86,0.00,,,0.00,weatherlink.com 1.10,2013-06-14 15:47:00,
2013-06-14 09:00:00,62.0,57.8,29.91,SE,135,3.0,9.0,86,0.00,,---,0.00,VWS V14.00,2013-06-14 16:00:00,
2013-06-14 09:02:00,62.1,58.0,29.91,SE,130,1.0,9.0,86,0.00,,,0.00,weatherlink.com 1.10,2013-06-14 16:02:00,
2013-06-14 09:17:00,62.0,58.0,29.91,SSE,157,4.0,7.0,86,0.00,,,0.00,weatherlink.com 1.10,2013-06-14 16:17:00,
2013-06-14 09:30:00,62.0,57.8,29.90,SSE,158,3.0,8.0,86,0.00,,---,0.00,VWS V14.00,2013-06-14 16:30:00,
2013-06-14 09:32:00,62.0,58.0,29.90,South,173,4.0,6.0,87,0.00,,,0.00,weatherlink.com 1.10,2013-06-14 16:32:00,
2013-06-14 09:47:00,62.0,58.0,29.90,SE,144,6.0,10.0,87,0.00,,,0.00,weatherlink.com 1.10,2013-06-14 16:47:00,
2013-06-14 10:00:00,62.0,57.8,29.91,SE,135,3.0,9.0,86,0.00,,---,0.00,VWS V14.00,2013-06-14 17:00:00,
2013-06-14 10:02:00,62.0,59.0,29.90,South,174,2.0,8.0,88,0.00,,,0.00,weatherlink.com 1.10,2013-06-14 17:02:00,
2013-06-14 10:17:00,62.2,58.0,29.91,SSE,148,3.0,9.0,87,0.00,,,0.00,weatherlink.com 1.10,2013-06-14 17:17:00,
2013-06-14 10:30:00,62.2,58.3,29.91,SSE,158,3.0,9.0,87,0.00,,---,0.00,VWS V14.00,2013-06-14 17:30:00,
2013-06-14 10:32:00,62.2,58.0,29.91,SSW,196,4.0,7.0,87,0.00,,,0.00,weatherlink.com 1.10,2013-06-14 17:32:00,
2013-06-14 10:47:00,62.2,58.0,29.91,SSE,154,5.0,10.0,85,0.00,,,0.00,weatherlink.com 1.10,2013-06-14 17:47:00,
2013-06-14 11:00:00,61.9,58.3,29.90,SSE,158,4.0,10.0,88,0.00,,---,0.00,VWS V14.00,2013-06-14 18:00:00,
2013-06-14 11:02:00,62.9,58.0,29.91,South,176,3.0,10.0,84,0.00,,,0.00,weatherlink.com 1.10,2013-06-14 18:02:00,
2013-06-14 11:17:00,63.5,58.0,29.91,South,183,1.0,10.0,83,0.00,,,0.00,weatherlink.com 1.10,2013-06-14 18:17:00,
2013-06-14 11:30:00,63.6,58.0,29.91,South,180,4.0,11.0,82,0.00,,---,0.00,VWS V14.00,2013-06-14 18:30:00,
2013-06-14 11:32:00,63.6,58.0,29.91,WNW,284,5.0,11.0,82,0.00,,,0.00,weatherlink.com 1.10,2013-06-14 18:32:00,
2013-06-14 11:47:00,65.3,59.0,29.90,South,173,1.0,9.0,79,0.00,,,0.00,weatherlink.com 1.10,2013-06-14 18:47:00,
2013-06-14 12:00:00,65.6,57.8,29.90,South,180,4.0,11.0,76,0.00,,---,0.00,VWS V14.00,2013-06-14 19:00:00,
2013-06-14 12:02:00,65.6,58.0,29.90,South,175,9.0,11.0,77,0.00,,,0.00,weatherlink.com 1.10,2013-06-14 19:02:00,
2013-06-14 12:17:00,66.9,59.0,29.90,SSE,164,8.0,9.0,75,0.00,,,0.00,weatherlink.com 1.10,2013-06-14 19:17:00,
2013-06-14 12:30:00,63.6,58.0,29.91,South,180,4.0,11.0,82,0.00,,---,0.00,VWS V14.00,2013-06-14 19:30:00,
2013-06-14 12:32:00,67.4,59.0,29.90,SSE,150,6.0,11.0,75,0.00,,,0.00,weatherlink.com 1.10,2013-06-14 19:32:00,
2013-06-14 12:47:00,66.4,58.0,29.90,SW,216,3.0,10.0,75,0.00,,,0.00,weatherlink.com 1.10,2013-06-14 19:47:00,
2013-06-14 13:00:00,66.4,58.6,29.90,South,180,5.0,13.0,76,0.00,,---,0.00,VWS V14.00,2013-06-14 20:00:00,
2013-06-14 13:02:00,66.7,59.0,29.90,NE,55,7.0,10.0,75,0.00,,,0.00,weatherlink.com 1.10,2013-06-14 20:02:00,
2013-06-14 13:17:00,66.2,58.0,29.89,South,189,4.0,12.0,75,0.00,,,0.00,weatherlink.com 1.10,2013-06-14 20:17:00,
2013-06-14 13:30:00,66.5,58.0,29.90,SSE,158,5.0,13.0,74,0.00,,---,0.00,VWS V14.00,2013-06-14 20:30:00,
2013-06-14 13:32:00,66.4,58.0,29.89,SSW,208,4.0,13.0,75,0.00,,,0.00,weatherlink.com 1.10,2013-06-14 20:32:00,
2013-06-14 13:47:00,65.4,58.0,29.89,South,173,5.0,13.0,76,0.00,,,0.00,weatherlink.com 1.10,2013-06-14 20:47:00,
2013-06-14 14:00:00,65.4,57.7,29.89,South,180,6.0,14.0,76,0.00,,---,0.00,VWS V14.00,2013-06-14 21:00:00,
2013-06-14 14:17:00,66.2,58.0,29.88,SSE,161,3.0,12.0,74,0.00,,,0.00,weatherlink.com 1.10,2013-06-14 21:17:00,
2013-06-14 14:30:00,65.7,57.6,29.88,SSE,158,5.0,13.0,75,0.00,,---,0.00,VWS V14.00,2013-06-14 21:30:00,
2013-06-14 14:32:00,65.9,58.0,29.88,SSW,200,6.0,12.0,76,0.00,,,0.00,weatherlink.com 1.10,2013-06-14 21:32:00,
2013-06-14 15:00:00,65.5,57.4,29.87,South,180,5.0,13.0,75,0.00,,---,0.00,VWS V14.00,2013-06-14 22:00:00,
2013-06-14 15:02:00,65.4,58.0,29.87,WSW,243,5.0,10.0,76,0.00,,,0.00,weatherlink.com 1.10,2013-06-14 22:02:00,
2013-06-14 15:17:00,65.8,58.0,29.87,SSW,198,4.0,10.0,75,0.00,,,0.00,weatherlink.com 1.10,2013-06-14 22:17:00,
2013-06-14 15:30:00,65.7,57.6,29.88,SSE,158,5.0,13.0,75,0.00,,---,0.00,VWS V14.00,2013-06-14 22:30:00,
2013-06-14 15:32:00,66.4,58.0,29.87,South,191,5.0,15.0,74,0.00,,,0.00,weatherlink.com 1.10,2013-06-14 22:32:00,
2013-06-14 15:47:00,65.8,58.0,29.87,SSE,167,4.0,9.0,75,0.00,,,0.00,weatherlink.com 1.10,2013-06-14 22:47:00,
2013-06-14 16:00:00,65.0,56.9,29.86,South,180,5.0,15.0,75,0.00,,---,0.00,VWS V14.00,2013-06-14 23:00:00,
2013-06-14 16:02:00,65.1,58.0,29.86,South,172,6.0,13.0,77,0.00,,,0.00,weatherlink.com 1.10,2013-06-14 23:02:00,
2013-06-14 16:17:00,65.7,58.0,29.86,South,182,6.0,12.0,76,0.00,,,0.00,weatherlink.com 1.10,2013-06-14 23:17:00,
2013-06-14 16:30:00,65.6,57.8,29.86,South,180,4.0,12.0,76,0.00,,---,0.00,VWS V14.00,2013-06-14 23:30:00,
2013-06-14 16:32:00,65.7,58.0,29.86,SW,235,3.0,9.0,75,0.00,,,0.00,weatherlink.com 1.10,2013-06-14 23:32:00,
2013-06-14 16:47:00,65.4,57.0,29.86,WNW,295,6.0,11.0,75,0.00,,,0.00,weatherlink.com 1.10,2013-06-14 23:47:00,
2013-06-14 17:00:00,65.0,56.9,29.86,South,180,5.0,15.0,75,0.00,,---,0.00,VWS V14.00,2013-06-15 00:00:00,
2013-06-14 17:02:00,65.4,57.0,29.85,South,172,4.0,11.0,75,0.00,,,0.00,weatherlink.com 1.10,2013-06-15 00:02:00,
2013-06-14 17:17:00,64.5,57.0,29.85,South,172,9.0,10.0,76,0.00,,,0.00,weatherlink.com 1.10,2013-06-15 00:17:00,
2013-06-14 17:30:00,64.1,57.1,29.85,South,180,5.0,11.0,78,0.00,,---,0.00,VWS V14.00,2013-06-15 00:30:00,
2013-06-14 17:32:00,64.4,57.0,29.85,SSW,211,0.0,11.0,77,0.00,,,0.00,weatherlink.com 1.10,2013-06-15 00:32:00,
2013-06-14 17:47:00,64.3,57.0,29.85,SSE,161,6.0,13.0,78,0.00,,,0.00,weatherlink.com 1.10,2013-06-15 00:47:00,
2013-06-14 18:00:00,63.4,56.8,29.85,South,180,4.0,13.0,79,0.00,,---,0.00,VWS V14.00,2013-06-15 01:00:00,
2013-06-14 18:02:00,63.5,57.0,29.85,South,170,7.0,10.0,79,0.00,,,0.00,weatherlink.com 1.10,2013-06-15 01:02:00,
2013-06-14 18:17:00,63.0,56.0,29.85,SW,225,1.0,8.0,79,0.00,,,0.00,weatherlink.com 1.10,2013-06-15 01:17:00,
2013-06-14 18:30:00,62.5,55.9,29.85,South,180,4.0,13.0,79,0.00,,---,0.00,VWS V14.00,2013-06-15 01:30:00,
2013-06-14 18:32:00,62.5,56.0,29.85,SE,133,6.0,7.0,80,0.00,,,0.00,weatherlink.com 1.10,2013-06-15 01:32:00,
2013-06-14 18:47:00,61.8,56.0,29.86,SW,217,0.0,9.0,81,0.00,,,0.00,weatherlink.com 1.10,2013-06-15 01:47:00,
2013-06-14 19:00:00,62.0,56.1,29.85,South,180,3.0,9.0,81,0.00,,---,0.00,VWS V14.00,2013-06-15 02:00:00,
2013-06-14 19:02:00,61.9,56.0,29.85,SSW,201,3.0,7.0,81,0.00,,,0.00,weatherlink.com 1.10,2013-06-15 02:02:00,
2013-06-14 19:17:00,61.4,56.0,29.85,SSW,205,4.0,8.0,82,0.00,,,0.00,weatherlink.com 1.10,2013-06-15 02:17:00,
2013-06-14 19:30:00,61.1,55.9,29.85,South,180,3.0,8.0,83,0.00,,---,0.00,VWS V14.00,2013-06-15 02:30:00,
2013-06-14 19:32:00,61.0,56.0,29.86,WSW,240,2.0,8.0,83,0.00,,,0.00,weatherlink.com 1.10,2013-06-15 02:32:00,
2013-06-14 19:47:00,60.6,56.0,29.86,South,190,4.0,7.0,84,0.00,,,0.00,weatherlink.com 1.10,2013-06-15 02:47:00,
2013-06-14 20:00:00,60.2,55.3,29.86,SSE,158,3.0,7.0,84,0.00,,---,0.00,VWS V14.00,2013-06-15 03:00:00,
2013-06-14 20:02:00,60.2,55.0,29.86,SSE,167,2.0,6.0,84,0.00,,,0.00,weatherlink.com 1.10,2013-06-15 03:02:00,
2013-06-14 20:17:00,60.0,56.0,29.86,SSE,161,1.0,6.0,85,0.00,,,0.00,weatherlink.com 1.10,2013-06-15 03:17:00,
2013-06-14 20:30:00,60.0,55.5,29.86,South,180,2.0,7.0,85,0.00,,---,0.00,VWS V14.00,2013-06-15 03:30:00,
2013-06-14 20:32:00,60.0,56.0,29.86,SSE,163,5.0,6.0,85,0.00,,,0.00,weatherlink.com 1.10,2013-06-15 03:32:00,
2013-06-14 20:47:00,59.6,55.0,29.86,SSE,167,2.0,4.0,85,0.00,,,0.00,weatherlink.com 1.10,2013-06-15 03:47:00,
2013-06-14 21:00:00,59.5,55.3,29.87,SSE,158,2.0,7.0,86,0.00,,---,0.00,VWS V14.00,2013-06-15 04:00:00,
2013-06-14 21:02:00,59.4,55.0,29.87,SSE,166,2.0,7.0,86,0.00,,,0.00,weatherlink.com 1.10,2013-06-15 04:02:00,
2013-06-14 21:17:00,59.4,55.0,29.87,South,185,1.0,3.0,86,0.00,,,0.00,weatherlink.com 1.10,2013-06-15 04:17:00,
2013-06-14 21:30:00,59.5,55.3,29.87,SSE,158,2.0,6.0,86,0.00,,---,0.00,VWS V14.00,2013-06-15 04:30:00,
2013-06-14 21:32:00,59.5,55.0,29.87,South,173,2.0,5.0,86,0.00,,,0.00,weatherlink.com 1.10,2013-06-15 04:32:00,
2013-06-14 21:47:00,59.7,56.0,29.88,SSE,167,1.0,5.0,86,0.00,,,0.00,weatherlink.com 1.10,2013-06-15 04:47:00,
2013-06-14 22:00:00,59.7,55.5,29.89,South,180,2.0,6.0,86,0.00,,---,0.00,VWS V14.00,2013-06-15 05:00:00,
2013-06-14 22:02:00,59.7,56.0,29.89,SE,126,2.0,6.0,86,0.00,,,0.00,weatherlink.com 1.10,2013-06-15 05:02:00,
2013-06-14 22:17:00,59.6,56.0,29.89,South,173,2.0,5.0,86,0.00,,,0.00,weatherlink.com 1.10,2013-06-15 05:17:00,
2013-06-14 22:30:00,59.8,55.6,29.89,SE,135,1.0,6.0,86,0.00,,---,0.00,VWS V14.00,2013-06-15 05:30:00,
2013-06-14 22:32:00,59.8,56.0,29.89,SSE,160,2.0,7.0,86,0.00,,,0.00,weatherlink.com 1.10,2013-06-15 05:32:00,
2013-06-14 22:47:00,59.6,56.0,29.89,East,91,0.0,7.0,86,0.00,,,0.00,weatherlink.com 1.10,2013-06-15 05:47:00,
2013-06-14 23:00:00,59.5,55.6,29.89,SE,135,2.0,7.0,87,0.00,,---,0.00,VWS V14.00,2013-06-15 06:00:00,
2013-06-14 23:02:00,59.5,56.0,29.89,SSE,156,1.0,2.0,87,0.00,,,0.00,weatherlink.com 1.10,2013-06-15 06:02:00,
2013-06-14 23:17:00,59.6,56.0,29.89,SE,134,0.0,5.0,87,0.00,,,0.00,weatherlink.com 1.10,2013-06-15 06:17:00,
2013-06-14 23:30:00,59.4,55.5,29.89,SE,135,2.0,6.0,87,0.00,,---,0.00,VWS V14.00,2013-06-15 06:30:00,
2013-06-14 23:32:00,59.4,56.0,29.89,South,173,0.0,6.0,87,0.00,,,0.00,weatherlink.com 1.10,2013-06-15 06:32:00,
2013-06-14 23:47:00,59.4,56.0,29.89,South,173,1.0,8.0,87,0.00,,,0.00,weatherlink.com 1.10,2013-06-15 06:47:00,